sensor_id;sensor_type;location;lat;lon;timestamp;temperature;humidity
67862;DHT22;54665;51.462;6.698;2024-03-02T00:01:51;8.38;76.06
67862;DHT22;54665;51.462;6.698;2024-03-02T00:03:51;8.41;75.94
67862;DHT22;54665;51.462;6.698;2024-03-02T00:05:51;8.43;75.88
67862;DHT22;54665;51.462;6.698;2024-03-02T00:07:56;8.48;75.78
67862;DHT22;54665;51.462;6.698;2024-03-02T00:09:56;8.49;75.74
67862;DHT22;54665;51.462;6.698;2024-03-02T00:11:57;8.48;75.95
67862;DHT22;54665;51.462;6.698;2024-03-02T00:13:58;8.50;75.87
67862;DHT22;54665;51.462;6.698;2024-03-02T00:15:58;8.62;75.86
67862;DHT22;54665;51.462;6.698;2024-03-02T00:17:58;8.67;75.43
67862;DHT22;54665;51.462;6.698;2024-03-02T00:19:59;8.83;75.35
67862;DHT22;54665;51.462;6.698;2024-03-02T00:22:01;8.88;75.22
67862;DHT22;54665;51.462;6.698;2024-03-02T00:24:09;8.90;75.06
67862;DHT22;54665;51.462;6.698;2024-03-02T00:26:17;9.00;75.25
67862;DHT22;54665;51.462;6.698;2024-03-02T00:28:20;8.97;74.80
67862;DHT22;54665;51.462;6.698;2024-03-02T00:30:55;9.04;74.55
67862;DHT22;54665;51.462;6.698;2024-03-02T00:32:55;9.14;74.20
67862;DHT22;54665;51.462;6.698;2024-03-02T00:34:56;9.14;74.37
67862;DHT22;54665;51.462;6.698;2024-03-02T00:36:59;9.18;74.23
67862;DHT22;54665;51.462;6.698;2024-03-02T00:38:59;9.17;74.16
67862;DHT22;54665;51.462;6.698;2024-03-02T00:41:06;9.15;74.50
67862;DHT22;54665;51.462;6.698;2024-03-02T00:45:32;9.14;74.26
67862;DHT22;54665;51.462;6.698;2024-03-02T00:47:38;9.20;74.27
67862;DHT22;54665;51.462;6.698;2024-03-02T00:49:38;9.20;74.55
67862;DHT22;54665;51.462;6.698;2024-03-02T00:51:39;9.21;74.49
67862;DHT22;54665;51.462;6.698;2024-03-02T00:53:39;9.23;74.09
67862;DHT22;54665;51.462;6.698;2024-03-02T00:55:40;9.25;73.89
67862;DHT22;54665;51.462;6.698;2024-03-02T00:57:40;9.34;73.92
67862;DHT22;54665;51.462;6.698;2024-03-02T00:59:40;9.32;73.83
67862;DHT22;54665;51.462;6.698;2024-03-02T01:01:41;9.42;73.77
67862;DHT22;54665;51.462;6.698;2024-03-02T01:03:42;9.41;73.60
67862;DHT22;54665;51.462;6.698;2024-03-02T01:05:42;9.42;73.60
67862;DHT22;54665;51.462;6.698;2024-03-02T01:07:43;9.41;73.51
67862;DHT22;54665;51.462;6.698;2024-03-02T01:09:43;9.52;73.56
67862;DHT22;54665;51.462;6.698;2024-03-02T01:11:43;9.48;73.40
67862;DHT22;54665;51.462;6.698;2024-03-02T01:13:44;9.44;73.81
67862;DHT22;54665;51.462;6.698;2024-03-02T01:15:45;9.45;73.66
67862;DHT22;54665;51.462;6.698;2024-03-02T01:17:45;9.42;73.72
67862;DHT22;54665;51.462;6.698;2024-03-02T01:19:45;9.41;73.49
67862;DHT22;54665;51.462;6.698;2024-03-02T01:21:45;9.38;73.50
67862;DHT22;54665;51.462;6.698;2024-03-02T01:23:46;9.38;73.73
67862;DHT22;54665;51.462;6.698;2024-03-02T01:25:47;9.32;73.64
67862;DHT22;54665;51.462;6.698;2024-03-02T01:27:47;9.08;74.26
67862;DHT22;54665;51.462;6.698;2024-03-02T01:29:47;9.03;74.37
67862;DHT22;54665;51.462;6.698;2024-03-02T01:31:48;8.96;74.76
67862;DHT22;54665;51.462;6.698;2024-03-02T01:33:48;8.96;74.88
67862;DHT22;54665;51.462;6.698;2024-03-02T01:35:48;8.88;75.10
67862;DHT22;54665;51.462;6.698;2024-03-02T01:37:48;8.77;75.17
67862;DHT22;54665;51.462;6.698;2024-03-02T01:39:49;8.84;74.87
67862;DHT22;54665;51.462;6.698;2024-03-02T01:41:49;8.84;75.18
67862;DHT22;54665;51.462;6.698;2024-03-02T01:43:49;8.84;75.21
67862;DHT22;54665;51.462;6.698;2024-03-02T01:45:50;8.76;75.15
67862;DHT22;54665;51.462;6.698;2024-03-02T01:47:50;8.86;74.95
67862;DHT22;54665;51.462;6.698;2024-03-02T01:49:50;8.91;74.81
67862;DHT22;54665;51.462;6.698;2024-03-02T01:51:50;8.93;74.77
67862;DHT22;54665;51.462;6.698;2024-03-02T01:53:51;9.05;74.42
67862;DHT22;54665;51.462;6.698;2024-03-02T01:55:51;9.15;74.19
67862;DHT22;54665;51.462;6.698;2024-03-02T01:57:52;9.34;73.67
67862;DHT22;54665;51.462;6.698;2024-03-02T01:59:52;9.39;73.51
67862;DHT22;54665;51.462;6.698;2024-03-02T02:01:52;9.44;72.77
67862;DHT22;54665;51.462;6.698;2024-03-02T02:03:53;9.61;72.37
67862;DHT22;54665;51.462;6.698;2024-03-02T02:05:53;9.68;72.24
67862;DHT22;54665;51.462;6.698;2024-03-02T02:07:53;9.78;72.05
67862;DHT22;54665;51.462;6.698;2024-03-02T02:09:54;9.76;72.34
67862;DHT22;54665;51.462;6.698;2024-03-02T02:11:54;9.71;72.15
67862;DHT22;54665;51.462;6.698;2024-03-02T02:13:54;9.75;71.87
67862;DHT22;54665;51.462;6.698;2024-03-02T02:15:55;9.81;71.85
67862;DHT22;54665;51.462;6.698;2024-03-02T02:17:56;9.86;71.71
67862;DHT22;54665;51.462;6.698;2024-03-02T02:19:56;9.83;71.80
67862;DHT22;54665;51.462;6.698;2024-03-02T02:21:57;9.85;71.69
67862;DHT22;54665;51.462;6.698;2024-03-02T02:23:57;9.81;71.49
67862;DHT22;54665;51.462;6.698;2024-03-02T02:25:57;9.92;71.27
67862;DHT22;54665;51.462;6.698;2024-03-02T02:27:58;9.89;71.79
67862;DHT22;54665;51.462;6.698;2024-03-02T02:29:58;9.87;72.03
67862;DHT22;54665;51.462;6.698;2024-03-02T02:31:58;10.02;71.56
67862;DHT22;54665;51.462;6.698;2024-03-02T02:33:59;10.03;71.40
67862;DHT22;54665;51.462;6.698;2024-03-02T02:35:59;9.95;71.48
67862;DHT22;54665;51.462;6.698;2024-03-02T02:37:59;9.93;71.98
67862;DHT22;54665;51.462;6.698;2024-03-02T02:40:00;9.96;71.34
67862;DHT22;54665;51.462;6.698;2024-03-02T02:42:00;10.03;71.52
67862;DHT22;54665;51.462;6.698;2024-03-02T02:44:00;9.97;71.47
67862;DHT22;54665;51.462;6.698;2024-03-02T02:46:00;9.95;71.17
67862;DHT22;54665;51.462;6.698;2024-03-02T02:48:01;9.92;71.31
67862;DHT22;54665;51.462;6.698;2024-03-02T02:50:06;9.99;71.18
67862;DHT22;54665;51.462;6.698;2024-03-02T02:52:07;9.99;71.34
67862;DHT22;54665;51.462;6.698;2024-03-02T02:54:07;10.10;70.88
67862;DHT22;54665;51.462;6.698;2024-03-02T02:56:07;10.06;70.91
67862;DHT22;54665;51.462;6.698;2024-03-02T02:58:08;10.13;71.22
67862;DHT22;54665;51.462;6.698;2024-03-02T03:00:10;10.06;71.04
67862;DHT22;54665;51.462;6.698;2024-03-02T03:02:11;10.09;71.28
67862;DHT22;54665;51.462;6.698;2024-03-02T03:04:11;10.05;70.99
67862;DHT22;54665;51.462;6.698;2024-03-02T03:06:12;10.00;71.32
67862;DHT22;54665;51.462;6.698;2024-03-02T03:08:12;9.96;71.66
67862;DHT22;54665;51.462;6.698;2024-03-02T03:10:12;10.00;71.52
67862;DHT22;54665;51.462;6.698;2024-03-02T03:12:13;9.95;71.57
67862;DHT22;54665;51.462;6.698;2024-03-02T03:14:13;9.86;71.67
67862;DHT22;54665;51.462;6.698;2024-03-02T03:16:13;9.90;71.71
67862;DHT22;54665;51.462;6.698;2024-03-02T03:18:13;9.69;72.30
67862;DHT22;54665;51.462;6.698;2024-03-02T03:20:14;9.59;72.53
67862;DHT22;54665;51.462;6.698;2024-03-02T03:22:14;9.56;72.94
67862;DHT22;54665;51.462;6.698;2024-03-02T03:24:14;9.38;73.46
67862;DHT22;54665;51.462;6.698;2024-03-02T03:26:15;9.32;73.54
67862;DHT22;54665;51.462;6.698;2024-03-02T03:28:15;9.31;73.72
67862;DHT22;54665;51.462;6.698;2024-03-02T03:30:15;9.27;73.72
67862;DHT22;54665;51.462;6.698;2024-03-02T03:32:16;9.25;74.00
67862;DHT22;54665;51.462;6.698;2024-03-02T03:34:16;9.28;73.95
67862;DHT22;54665;51.462;6.698;2024-03-02T03:36:16;9.25;74.35
67862;DHT22;54665;51.462;6.698;2024-03-02T03:38:17;9.20;74.60
67862;DHT22;54665;51.462;6.698;2024-03-02T03:40:17;9.24;74.41
67862;DHT22;54665;51.462;6.698;2024-03-02T03:42:17;9.15;74.47
67862;DHT22;54665;51.462;6.698;2024-03-02T03:44:17;9.21;74.65
67862;DHT22;54665;51.462;6.698;2024-03-02T03:46:18;9.21;74.32
67862;DHT22;54665;51.462;6.698;2024-03-02T03:48:18;9.15;74.45
67862;DHT22;54665;51.462;6.698;2024-03-02T03:50:18;9.31;74.56
67862;DHT22;54665;51.462;6.698;2024-03-02T03:52:19;9.23;75.04
67862;DHT22;54665;51.462;6.698;2024-03-02T03:54:19;9.27;74.95
67862;DHT22;54665;51.462;6.698;2024-03-02T03:56:19;9.27;75.37
67862;DHT22;54665;51.462;6.698;2024-03-02T03:58:19;9.28;75.73
67862;DHT22;54665;51.462;6.698;2024-03-02T04:00:20;9.27;75.79
67862;DHT22;54665;51.462;6.698;2024-03-02T04:02:20;9.27;75.69
67862;DHT22;54665;51.462;6.698;2024-03-02T04:04:20;9.11;76.23
67862;DHT22;54665;51.462;6.698;2024-03-02T04:06:21;9.15;76.08
67862;DHT22;54665;51.462;6.698;2024-03-02T04:08:21;9.03;76.30
67862;DHT22;54665;51.462;6.698;2024-03-02T04:10:21;8.83;76.76
67862;DHT22;54665;51.462;6.698;2024-03-02T04:12:22;8.72;77.22
67862;DHT22;54665;51.462;6.698;2024-03-02T04:14:22;8.53;77.88
67862;DHT22;54665;51.462;6.698;2024-03-02T04:16:22;8.62;77.57
67862;DHT22;54665;51.462;6.698;2024-03-02T04:18:23;8.46;78.17
67862;DHT22;54665;51.462;6.698;2024-03-02T04:20:23;8.42;78.36
67862;DHT22;54665;51.462;6.698;2024-03-02T04:22:23;8.29;78.97
67862;DHT22;54665;51.462;6.698;2024-03-02T04:24:23;8.29;78.91
67862;DHT22;54665;51.462;6.698;2024-03-02T04:26:25;8.20;79.20
67862;DHT22;54665;51.462;6.698;2024-03-02T04:28:25;8.09;80.03
67862;DHT22;54665;51.462;6.698;2024-03-02T04:30:25;8.11;80.43
67862;DHT22;54665;51.462;6.698;2024-03-02T04:32:26;8.15;80.24
67862;DHT22;54665;51.462;6.698;2024-03-02T04:34:27;8.15;80.71
67862;DHT22;54665;51.462;6.698;2024-03-02T04:36:27;8.21;80.81
67862;DHT22;54665;51.462;6.698;2024-03-02T04:38:28;8.25;80.63
67862;DHT22;54665;51.462;6.698;2024-03-02T04:40:28;8.31;80.16
67862;DHT22;54665;51.462;6.698;2024-03-02T04:42:28;8.32;80.24
67862;DHT22;54665;51.462;6.698;2024-03-02T04:44:28;8.36;80.20
67862;DHT22;54665;51.462;6.698;2024-03-02T04:46:29;8.48;79.70
67862;DHT22;54665;51.462;6.698;2024-03-02T04:48:29;8.46;79.77
67862;DHT22;54665;51.462;6.698;2024-03-02T04:50:29;8.38;79.92
67862;DHT22;54665;51.462;6.698;2024-03-02T04:52:30;8.25;80.15
67862;DHT22;54665;51.462;6.698;2024-03-02T04:54:30;8.24;80.36
67862;DHT22;54665;51.462;6.698;2024-03-02T04:56:30;8.11;80.47
67862;DHT22;54665;51.462;6.698;2024-03-02T04:58:30;8.14;80.51
67862;DHT22;54665;51.462;6.698;2024-03-02T05:00:31;8.14;80.14
67862;DHT22;54665;51.462;6.698;2024-03-02T05:02:31;7.87;81.08
67862;DHT22;54665;51.462;6.698;2024-03-02T05:04:31;7.84;80.86
67862;DHT22;54665;51.462;6.698;2024-03-02T05:06:32;7.73;81.02
67862;DHT22;54665;51.462;6.698;2024-03-02T05:08:32;7.57;81.44
67862;DHT22;54665;51.462;6.698;2024-03-02T05:10:32;7.39;82.16
67862;DHT22;54665;51.462;6.698;2024-03-02T05:12:32;7.32;82.35
67862;DHT22;54665;51.462;6.698;2024-03-02T05:14:33;7.22;82.28
67862;DHT22;54665;51.462;6.698;2024-03-02T05:16:34;7.13;82.53
67862;DHT22;54665;51.462;6.698;2024-03-02T05:18:34;7.12;82.94
67862;DHT22;54665;51.462;6.698;2024-03-02T05:20:37;7.09;82.95
67862;DHT22;54665;51.462;6.698;2024-03-02T05:22:37;7.06;83.11
67862;DHT22;54665;51.462;6.698;2024-03-02T05:24:38;6.96;83.12
67862;DHT22;54665;51.462;6.698;2024-03-02T05:26:38;6.92;83.42
67862;DHT22;54665;51.462;6.698;2024-03-02T05:28:38;6.84;83.55
67862;DHT22;54665;51.462;6.698;2024-03-02T05:30:39;6.79;83.54
67862;DHT22;54665;51.462;6.698;2024-03-02T05:32:39;6.60;83.98
67862;DHT22;54665;51.462;6.698;2024-03-02T05:34:39;6.63;84.18
67862;DHT22;54665;51.462;6.698;2024-03-02T05:36:40;6.65;84.39
67862;DHT22;54665;51.462;6.698;2024-03-02T05:38:40;6.65;84.32
67862;DHT22;54665;51.462;6.698;2024-03-02T05:40:40;6.72;84.62
67862;DHT22;54665;51.462;6.698;2024-03-02T05:42:40;6.85;84.09
67862;DHT22;54665;51.462;6.698;2024-03-02T05:44:41;6.89;84.05
67862;DHT22;54665;51.462;6.698;2024-03-02T05:46:41;6.96;83.94
67862;DHT22;54665;51.462;6.698;2024-03-02T05:48:42;7.05;83.54
67862;DHT22;54665;51.462;6.698;2024-03-02T05:50:42;7.12;83.15
67862;DHT22;54665;51.462;6.698;2024-03-02T05:52:42;7.34;82.57
67862;DHT22;54665;51.462;6.698;2024-03-02T05:54:42;7.47;82.15
67862;DHT22;54665;51.462;6.698;2024-03-02T05:56:43;7.47;81.67
67862;DHT22;54665;51.462;6.698;2024-03-02T05:58:43;7.66;81.22
67862;DHT22;54665;51.462;6.698;2024-03-02T06:00:43;7.69;80.58
67862;DHT22;54665;51.462;6.698;2024-03-02T06:02:43;7.67;80.43
67862;DHT22;54665;51.462;6.698;2024-03-02T06:04:44;7.67;80.22
67862;DHT22;54665;51.462;6.698;2024-03-02T06:06:44;7.63;80.19
67862;DHT22;54665;51.462;6.698;2024-03-02T06:08:44;7.66;80.24
67862;DHT22;54665;51.462;6.698;2024-03-02T06:10:44;7.67;80.01
67862;DHT22;54665;51.462;6.698;2024-03-02T06:12:45;7.60;80.12
67862;DHT22;54665;51.462;6.698;2024-03-02T06:14:45;7.51;80.49
67862;DHT22;54665;51.462;6.698;2024-03-02T06:16:45;7.56;80.41
67862;DHT22;54665;51.462;6.698;2024-03-02T06:18:46;7.40;80.80
67862;DHT22;54665;51.462;6.698;2024-03-02T06:20:46;7.34;80.98
67862;DHT22;54665;51.462;6.698;2024-03-02T06:22:46;7.43;80.85
67862;DHT22;54665;51.462;6.698;2024-03-02T06:24:46;7.47;80.67
67862;DHT22;54665;51.462;6.698;2024-03-02T06:26:47;7.50;80.60
67862;DHT22;54665;51.462;6.698;2024-03-02T06:28:47;7.47;80.68
67862;DHT22;54665;51.462;6.698;2024-03-02T06:30:47;7.47;80.54
67862;DHT22;54665;51.462;6.698;2024-03-02T06:32:47;7.59;80.54
67862;DHT22;54665;51.462;6.698;2024-03-02T06:34:48;7.59;80.50
67862;DHT22;54665;51.462;6.698;2024-03-02T06:36:48;7.64;80.30
67862;DHT22;54665;51.462;6.698;2024-03-02T06:38:48;7.64;80.35
67862;DHT22;54665;51.462;6.698;2024-03-02T06:40:49;7.69;80.20
67862;DHT22;54665;51.462;6.698;2024-03-02T06:42:49;7.64;80.15
67862;DHT22;54665;51.462;6.698;2024-03-02T06:44:49;7.71;79.97
67862;DHT22;54665;51.462;6.698;2024-03-02T06:46:50;7.69;79.88
67862;DHT22;54665;51.462;6.698;2024-03-02T06:48:50;7.92;79.47
67862;DHT22;54665;51.462;6.698;2024-03-02T06:50:50;7.84;79.28
67862;DHT22;54665;51.462;6.698;2024-03-02T06:52:50;7.92;79.24
67862;DHT22;54665;51.462;6.698;2024-03-02T06:54:51;8.18;78.84
67862;DHT22;54665;51.462;6.698;2024-03-02T06:56:51;8.26;78.30
67862;DHT22;54665;51.462;6.698;2024-03-02T06:58:51;8.35;78.39
67862;DHT22;54665;51.462;6.698;2024-03-02T07:00:52;8.62;77.61
67862;DHT22;54665;51.462;6.698;2024-03-02T07:02:52;8.63;77.33
67862;DHT22;54665;51.462;6.698;2024-03-02T07:04:55;8.64;76.99
67862;DHT22;54665;51.462;6.698;2024-03-02T07:06:56;8.67;76.54
67862;DHT22;54665;51.462;6.698;2024-03-02T07:08:56;8.76;76.64
67862;DHT22;54665;51.462;6.698;2024-03-02T07:10:56;8.90;76.44
67862;DHT22;54665;51.462;6.698;2024-03-02T07:12:56;8.86;76.17
67862;DHT22;54665;51.462;6.698;2024-03-02T07:14:57;8.86;75.94
67862;DHT22;54665;51.462;6.698;2024-03-02T07:16:57;9.05;75.74
67862;DHT22;54665;51.462;6.698;2024-03-02T07:18:58;9.14;75.90
67862;DHT22;54665;51.462;6.698;2024-03-02T07:20:58;9.08;75.05
67862;DHT22;54665;51.462;6.698;2024-03-02T07:22:59;9.18;75.29
67862;DHT22;54665;51.462;6.698;2024-03-02T07:24:59;9.21;75.55
67862;DHT22;54665;51.462;6.698;2024-03-02T07:26:59;9.31;75.52
67862;DHT22;54665;51.462;6.698;2024-03-02T07:29:00;9.48;74.36
67862;DHT22;54665;51.462;6.698;2024-03-02T07:31:03;9.55;74.35
67862;DHT22;54665;51.462;6.698;2024-03-02T07:33:04;9.45;74.49
67862;DHT22;54665;51.462;6.698;2024-03-02T07:35:05;9.45;73.92
67862;DHT22;54665;51.462;6.698;2024-03-02T07:37:05;9.49;74.27
67862;DHT22;54665;51.462;6.698;2024-03-02T07:39:06;9.54;74.03
67862;DHT22;54665;51.462;6.698;2024-03-02T07:41:07;9.41;74.60
67862;DHT22;54665;51.462;6.698;2024-03-02T07:43:08;9.45;74.88
67862;DHT22;54665;51.462;6.698;2024-03-02T07:45:08;9.52;74.51
67862;DHT22;54665;51.462;6.698;2024-03-02T07:47:09;9.55;74.28
67862;DHT22;54665;51.462;6.698;2024-03-02T07:49:09;9.56;74.48
67862;DHT22;54665;51.462;6.698;2024-03-02T07:51:09;9.81;74.22
67862;DHT22;54665;51.462;6.698;2024-03-02T07:53:10;9.85;73.70
67862;DHT22;54665;51.462;6.698;2024-03-02T07:55:10;9.68;73.77
67862;DHT22;54665;51.462;6.698;2024-03-02T07:57:10;9.62;74.17
67862;DHT22;54665;51.462;6.698;2024-03-02T07:59:11;9.69;73.89
67862;DHT22;54665;51.462;6.698;2024-03-02T08:01:11;9.61;73.96
67862;DHT22;54665;51.462;6.698;2024-03-02T08:03:11;9.65;74.04
67862;DHT22;54665;51.462;6.698;2024-03-02T08:05:12;9.58;73.73
67862;DHT22;54665;51.462;6.698;2024-03-02T08:07:12;9.54;74.11
67862;DHT22;54665;51.462;6.698;2024-03-02T08:09:12;9.58;74.28
67862;DHT22;54665;51.462;6.698;2024-03-02T08:11:13;9.72;74.16
67862;DHT22;54665;51.462;6.698;2024-03-02T08:13:13;10.23;73.15
67862;DHT22;54665;51.462;6.698;2024-03-02T08:15:13;10.30;72.58
67862;DHT22;54665;51.462;6.698;2024-03-02T08:17:14;10.23;72.11
67862;DHT22;54665;51.462;6.698;2024-03-02T08:19:14;10.10;72.94
67862;DHT22;54665;51.462;6.698;2024-03-02T08:21:15;9.87;73.08
67862;DHT22;54665;51.462;6.698;2024-03-02T08:23:16;10.05;73.68
67862;DHT22;54665;51.462;6.698;2024-03-02T08:25:16;10.00;73.04
67862;DHT22;54665;51.462;6.698;2024-03-02T08:27:17;10.05;73.26
67862;DHT22;54665;51.462;6.698;2024-03-02T08:29:17;9.78;73.64
67862;DHT22;54665;51.462;6.698;2024-03-02T08:31:17;9.78;73.93
67862;DHT22;54665;51.462;6.698;2024-03-02T08:33:17;9.82;74.12
67862;DHT22;54665;51.462;6.698;2024-03-02T08:35:18;9.71;74.05
67862;DHT22;54665;51.462;6.698;2024-03-02T08:37:18;9.90;74.13
67862;DHT22;54665;51.462;6.698;2024-03-02T08:39:18;9.96;73.65
67862;DHT22;54665;51.462;6.698;2024-03-02T08:41:19;9.82;73.55
67862;DHT22;54665;51.462;6.698;2024-03-02T08:43:19;10.05;73.70
67862;DHT22;54665;51.462;6.698;2024-03-02T08:45:20;10.13;72.67
67862;DHT22;54665;51.462;6.698;2024-03-02T08:47:20;10.30;72.76
67862;DHT22;54665;51.462;6.698;2024-03-02T08:49:21;10.24;72.46
67862;DHT22;54665;51.462;6.698;2024-03-02T08:51:21;10.23;72.45
67862;DHT22;54665;51.462;6.698;2024-03-02T08:53:21;10.54;72.09
67862;DHT22;54665;51.462;6.698;2024-03-02T08:55:22;10.60;72.12
67862;DHT22;54665;51.462;6.698;2024-03-02T08:57:22;10.89;70.98
67862;DHT22;54665;51.462;6.698;2024-03-02T08:59:22;10.85;71.11
67862;DHT22;54665;51.462;6.698;2024-03-02T09:01:23;10.85;70.62
67862;DHT22;54665;51.462;6.698;2024-03-02T09:03:23;10.98;70.72
67862;DHT22;54665;51.462;6.698;2024-03-02T09:05:23;11.07;69.98
67862;DHT22;54665;51.462;6.698;2024-03-02T09:07:24;11.29;70.26
67862;DHT22;54665;51.462;6.698;2024-03-02T09:09:24;11.30;69.95
67862;DHT22;54665;51.462;6.698;2024-03-02T09:11:24;11.77;69.37
67862;DHT22;54665;51.462;6.698;2024-03-02T09:13:25;11.67;68.59
67862;DHT22;54665;51.462;6.698;2024-03-02T09:15:25;11.56;68.77
67862;DHT22;54665;51.462;6.698;2024-03-02T09:17:25;11.67;68.94
67862;DHT22;54665;51.462;6.698;2024-03-02T09:19:26;11.63;68.61
67862;DHT22;54665;51.462;6.698;2024-03-02T09:21:26;11.69;68.72
67862;DHT22;54665;51.462;6.698;2024-03-02T09:23:26;11.69;68.87
67862;DHT22;54665;51.462;6.698;2024-03-02T09:25:27;11.86;69.03
67862;DHT22;54665;51.462;6.698;2024-03-02T09:27:27;11.69;68.80
67862;DHT22;54665;51.462;6.698;2024-03-02T09:29:27;11.81;68.30
67862;DHT22;54665;51.462;6.698;2024-03-02T09:31:28;12.17;68.24
67862;DHT22;54665;51.462;6.698;2024-03-02T09:33:28;12.16;67.57
67862;DHT22;54665;51.462;6.698;2024-03-02T09:35:28;12.05;67.79
67862;DHT22;54665;51.462;6.698;2024-03-02T09:37:28;12.68;68.00
67862;DHT22;54665;51.462;6.698;2024-03-02T09:39:29;12.95;65.82
67862;DHT22;54665;51.462;6.698;2024-03-02T09:41:29;13.19;65.60
67862;DHT22;54665;51.462;6.698;2024-03-02T09:43:30;13.12;64.32
67862;DHT22;54665;51.462;6.698;2024-03-02T09:45:30;12.78;64.83
67862;DHT22;54665;51.462;6.698;2024-03-02T09:47:30;12.79;65.16
67862;DHT22;54665;51.462;6.698;2024-03-02T09:49:31;12.32;65.36
67862;DHT22;54665;51.462;6.698;2024-03-02T09:51:31;12.56;64.46
67862;DHT22;54665;51.462;6.698;2024-03-02T09:53:33;13.04;64.11
67862;DHT22;54665;51.462;6.698;2024-03-02T09:55:33;12.78;64.11
67862;DHT22;54665;51.462;6.698;2024-03-02T09:57:34;13.20;64.09
67862;DHT22;54665;51.462;6.698;2024-03-02T09:59:34;13.17;63.19
67862;DHT22;54665;51.462;6.698;2024-03-02T10:01:34;13.34;62.97
67862;DHT22;54665;51.462;6.698;2024-03-02T10:03:36;13.67;63.12
67862;DHT22;54665;51.462;6.698;2024-03-02T10:05:37;13.58;62.11
67862;DHT22;54665;51.462;6.698;2024-03-02T10:07:37;13.43;62.41
67862;DHT22;54665;51.462;6.698;2024-03-02T10:09:38;13.37;62.93
67862;DHT22;54665;51.462;6.698;2024-03-02T10:11:38;13.60;62.90
67862;DHT22;54665;51.462;6.698;2024-03-02T10:13:38;13.57;61.70
67862;DHT22;54665;51.462;6.698;2024-03-02T10:15:40;13.77;61.95
67862;DHT22;54665;51.462;6.698;2024-03-02T10:17:41;13.70;61.99
67862;DHT22;54665;51.462;6.698;2024-03-02T10:19:41;13.85;60.43
67862;DHT22;54665;51.462;6.698;2024-03-02T10:21:41;13.97;59.76
67862;DHT22;54665;51.462;6.698;2024-03-02T10:23:41;13.94;58.79
67862;DHT22;54665;51.462;6.698;2024-03-02T10:25:43;13.88;58.89
67862;DHT22;54665;51.462;6.698;2024-03-02T10:27:43;13.74;59.19
67862;DHT22;54665;51.462;6.698;2024-03-02T10:29:47;13.36;59.58
67862;DHT22;54665;51.462;6.698;2024-03-02T10:31:47;13.74;60.09
67862;DHT22;54665;51.462;6.698;2024-03-02T10:33:47;13.94;60.80
67862;DHT22;54665;51.462;6.698;2024-03-02T10:35:49;14.21;60.13
67862;DHT22;54665;51.462;6.698;2024-03-02T10:37:50;14.52;60.28
67862;DHT22;54665;51.462;6.698;2024-03-02T10:39:52;14.36;58.74
67862;DHT22;54665;51.462;6.698;2024-03-02T10:41:53;14.11;59.57
67862;DHT22;54665;51.462;6.698;2024-03-02T10:43:55;13.89;60.27
67862;DHT22;54665;51.462;6.698;2024-03-02T10:45:57;14.09;61.10
67862;DHT22;54665;51.462;6.698;2024-03-02T10:47:57;14.21;59.50
67862;DHT22;54665;51.462;6.698;2024-03-02T10:49:59;14.33;60.39
67862;DHT22;54665;51.462;6.698;2024-03-02T10:52:01;14.46;59.95
67862;DHT22;54665;51.462;6.698;2024-03-02T10:54:02;14.22;60.15
67862;DHT22;54665;51.462;6.698;2024-03-02T10:56:07;14.18;60.44
67862;DHT22;54665;51.462;6.698;2024-03-02T10:58:12;14.18;60.34
67862;DHT22;54665;51.462;6.698;2024-03-02T11:00:13;13.98;59.80
67862;DHT22;54665;51.462;6.698;2024-03-02T11:02:13;14.18;60.26
67862;DHT22;54665;51.462;6.698;2024-03-02T11:04:18;14.43;59.43
67862;DHT22;54665;51.462;6.698;2024-03-02T11:06:19;14.40;59.32
67862;DHT22;54665;51.462;6.698;2024-03-02T11:08:20;14.32;59.17
67862;DHT22;54665;51.462;6.698;2024-03-02T11:10:21;14.70;58.31
67862;DHT22;54665;51.462;6.698;2024-03-02T11:12:29;15.01;59.34
67862;DHT22;54665;51.462;6.698;2024-03-02T11:14:31;15.03;58.35
67862;DHT22;54665;51.462;6.698;2024-03-02T11:16:34;14.87;58.60
67862;DHT22;54665;51.462;6.698;2024-03-02T11:18:34;15.12;57.34
67862;DHT22;54665;51.462;6.698;2024-03-02T11:20:39;14.87;58.97
67862;DHT22;54665;51.462;6.698;2024-03-02T11:22:40;15.07;57.83
67862;DHT22;54665;51.462;6.698;2024-03-02T11:24:50;15.30;58.08
67862;DHT22;54665;51.462;6.698;2024-03-02T11:26:51;14.91;56.61
67862;DHT22;54665;51.462;6.698;2024-03-02T11:28:51;14.81;57.59
67862;DHT22;54665;51.462;6.698;2024-03-02T11:30:52;14.81;56.86
67862;DHT22;54665;51.462;6.698;2024-03-02T11:32:55;14.76;56.62
67862;DHT22;54665;51.462;6.698;2024-03-02T11:34:56;14.91;58.28
67862;DHT22;54665;51.462;6.698;2024-03-02T11:37:03;15.38;58.13
67862;DHT22;54665;51.462;6.698;2024-03-02T11:39:04;15.45;57.29
67862;DHT22;54665;51.462;6.698;2024-03-02T11:41:07;15.52;58.30
67862;DHT22;54665;51.462;6.698;2024-03-02T11:43:08;15.67;57.44
67862;DHT22;54665;51.462;6.698;2024-03-02T11:45:09;15.95;56.11
67862;DHT22;54665;51.462;6.698;2024-03-02T11:47:11;15.56;56.19
67862;DHT22;54665;51.462;6.698;2024-03-02T11:49:14;15.24;57.15
67862;DHT22;54665;51.462;6.698;2024-03-02T11:51:16;15.55;57.27
67862;DHT22;54665;51.462;6.698;2024-03-02T11:53:17;15.35;57.19
67862;DHT22;54665;51.462;6.698;2024-03-02T11:55:18;15.51;56.22
67862;DHT22;54665;51.462;6.698;2024-03-02T11:57:20;15.12;56.87
67862;DHT22;54665;51.462;6.698;2024-03-02T11:59:22;15.05;57.47
67862;DHT22;54665;51.462;6.698;2024-03-02T12:01:23;15.51;56.46
67862;DHT22;54665;51.462;6.698;2024-03-02T12:03:24;15.58;56.75
67862;DHT22;54665;51.462;6.698;2024-03-02T12:05:24;16.00;57.45
67862;DHT22;54665;51.462;6.698;2024-03-02T12:07:26;15.99;55.53
67862;DHT22;54665;51.462;6.698;2024-03-02T12:09:27;16.36;54.57
67862;DHT22;54665;51.462;6.698;2024-03-02T12:11:28;16.28;55.93
67862;DHT22;54665;51.462;6.698;2024-03-02T12:13:28;15.82;56.49
67862;DHT22;54665;51.462;6.698;2024-03-02T12:15:30;15.15;57.27
67862;DHT22;54665;51.462;6.698;2024-03-02T12:17:31;14.49;58.21
67862;DHT22;54665;51.462;6.698;2024-03-02T12:19:32;14.56;59.67
67862;DHT22;54665;51.462;6.698;2024-03-02T12:21:33;14.33;59.06
67862;DHT22;54665;51.462;6.698;2024-03-02T12:23:34;14.36;59.17
67862;DHT22;54665;51.462;6.698;2024-03-02T12:25:34;14.52;58.91
67862;DHT22;54665;51.462;6.698;2024-03-02T12:27:35;14.81;58.54
67862;DHT22;54665;51.462;6.698;2024-03-02T12:29:35;14.70;58.07
67862;DHT22;54665;51.462;6.698;2024-03-02T12:31:36;14.88;57.28
67862;DHT22;54665;51.462;6.698;2024-03-02T12:33:36;15.00;56.88
67862;DHT22;54665;51.462;6.698;2024-03-02T12:35:36;15.00;57.82
67862;DHT22;54665;51.462;6.698;2024-03-02T12:37:45;14.87;57.47
67862;DHT22;54665;51.462;6.698;2024-03-02T12:39:46;15.07;56.93
67862;DHT22;54665;51.462;6.698;2024-03-02T12:41:46;15.31;56.53
67862;DHT22;54665;51.462;6.698;2024-03-02T12:43:47;15.41;56.51
67862;DHT22;54665;51.462;6.698;2024-03-02T12:45:47;15.36;55.99
67862;DHT22;54665;51.462;6.698;2024-03-02T12:47:47;15.62;57.27
67862;DHT22;54665;51.462;6.698;2024-03-02T12:49:48;15.59;57.75
67862;DHT22;54665;51.462;6.698;2024-03-02T12:51:49;15.46;58.33
67862;DHT22;54665;51.462;6.698;2024-03-02T12:53:54;15.39;56.95